Time;durP1;ratioP1;P1;durP2;ratioP2;P2;SDS_P1;SDS_P2;PMS_P1;PMS_P2;Temp;Humidity;BMP_temperature;BMP_pressure;BME280_temperature;BME280_humidity;BME280_pressure;Samples;Min_cycle;Max_cycle;Signal;HPM_P1;HPM_P2
2023/03/12 00:02:21;;;;;;;24.00;12.10;;;;;;;-2.04;75.25;99745.55;131457;1258;114751;-74
2023/03/12 00:05:26;;;;;;;22.20;13.40;;;;;;;-2.04;74.74;99738.56;131693;1254;113798;-73
2023/03/12 00:08:29;;;;;;;20.80;12.00;;;;;;;-2.03;74.82;99738.73;131509;1253;114684;-72
2023/03/12 00:11:31;;;;;;;21.10;12.40;;;;;;;-2.03;74.91;99736.46;131647;1253;114542;-73
2023/03/12 00:14:34;;;;;;;19.80;11.90;;;;;;;-2.02;75.06;99735.56;131643;1253;114726;-75
2023/03/12 00:17:36;;;;;;;17.70;11.80;;;;;;;-2.02;75.16;99733.13;131748;1254;114676;-74
2023/03/12 00:20:39;;;;;;;20.40;11.30;;;;;;;-2.01;74.47;99733.30;131691;1257;114857;-77
2023/03/12 00:23:42;;;;;;;18.70;10.80;;;;;;;-2.02;75.02;99731.73;131522;1253;114715;-77
2023/03/12 00:26:44;;;;;;;20.80;10.60;;;;;;;-2.02;75.25;99733.65;131486;1259;114728;-75
2023/03/12 00:29:47;;;;;;;18.30;10.80;;;;;;;-2.03;75.14;99732.61;131503;1256;114719;-76
2023/03/12 00:32:50;;;;;;;22.10;11.70;;;;;;;-2.03;75.13;99733.31;131499;1256;115365;-75
2023/03/12 00:35:56;;;;;;;24.10;11.80;;;;;;;-2.04;75.03;99732.27;131517;1261;116413;-75
2023/03/12 00:39:00;;;;;;;17.10;10.40;;;;;;;-2.05;75.15;99733.84;131377;1261;114698;-76
2023/03/12 00:42:03;;;;;;;18.40;11.30;;;;;;;-2.06;74.77;99727.73;131548;1260;114495;-75
2023/03/12 00:45:06;;;;;;;18.20;11.50;;;;;;;-2.07;75.03;99727.94;131495;1256;114719;-75
2023/03/12 00:48:09;;;;;;;20.00;11.80;;;;;;;-2.09;74.64;99724.61;132462;1256;129661;-77
2023/03/12 00:51:12;;;;;;;21.90;11.90;;;;;;;-2.09;75.34;99725.65;131531;1255;114744;-77
2023/03/12 00:54:14;;;;;;;20.80;11.10;;;;;;;-2.09;74.88;99724.60;132489;1256;114661;-76
2023/03/12 00:57:17;;;;;;;18.00;10.90;;;;;;;-2.10;75.30;99727.77;131506;1260;114733;-76
2023/03/12 01:00:20;;;;;;;17.70;10.80;;;;;;;-2.10;75.02;99728.65;131488;1256;114558;-77
2023/03/12 01:03:23;;;;;;;17.60;10.40;;;;;;;-2.12;75.38;99730.56;131485;1256;113198;-75
2023/03/12 01:06:26;;;;;;;23.90;11.30;;;;;;;-2.12;74.99;99731.80;131471;1256;114705;-76
2023/03/12 01:09:30;;;;;;;18.40;10.60;;;;;;;-2.14;74.94;99731.46;131476;1256;114656;-77
2023/03/12 01:12:33;;;;;;;18.40;11.10;;;;;;;-2.15;75.19;99732.54;131408;1256;113737;-76
2023/03/12 01:15:35;;;;;;;18.50;9.50;;;;;;;-2.16;74.87;99732.18;131534;1256;115407;-76
2023/03/12 01:18:38;;;;;;;17.80;9.10;;;;;;;-2.17;75.01;99733.77;131473;1256;114706;-76
2023/03/12 01:21:41;;;;;;;18.90;9.70;;;;;;;-2.18;75.50;99738.50;131362;1256;114701;-76
2023/03/12 01:24:43;;;;;;;14.20;9.40;;;;;;;-2.19;75.30;99742.69;132176;1256;202677;-75
2023/03/12 01:27:45;;;;;;;18.60;8.80;;;;;;;-2.20;75.14;99741.47;131628;1253;115308;-75
2023/03/12 01:30:48;;;;;;;17.00;8.90;;;;;;;-2.22;75.50;99736.05;131665;1254;114722;-76
2023/03/12 01:33:52;;;;;;;16.90;8.60;;;;;;;-2.24;74.73;99736.60;131711;1253;114646;-76
2023/03/12 01:36:55;;;;;;;14.20;7.70;;;;;;;-2.26;75.35;99733.99;131555;1253;114718;-76
2023/03/12 01:39:58;;;;;;;14.60;8.70;;;;;;;-2.29;75.07;99732.60;131537;1254;116027;-76
2023/03/12 01:43:23;;;;;;;13.10;8.20;;;;;;;-2.30;75.23;99732.27;131628;1253;114847;-78
2023/03/12 01:46:32;;;;;;;13.20;7.60;;;;;;;-2.32;74.93;99729.66;131595;1259;114684;-76
2023/03/12 01:49:35;;;;;;;15.60;7.50;;;;;;;-2.34;75.43;99724.59;131725;1253;114660;-78
2023/03/12 01:52:38;;;;;;;13.90;7.40;;;;;;;-2.36;74.86;99732.83;131673;1253;114648;-78
2023/03/12 01:55:42;;;;;;;14.90;7.70;;;;;;;-2.37;75.23;99734.06;132549;1259;126792;-77
2023/03/12 01:58:49;;;;;;;14.30;7.10;;;;;;;-2.38;75.49;99733.19;132580;1253;114657;-76
2023/03/12 02:01:52;;;;;;;13.00;7.00;;;;;;;-2.40;75.34;99734.07;132737;1258;113112;-76
2023/03/12 02:05:24;;;;;;;12.50;6.90;;;;;;;-2.40;75.09;99733.73;131697;1257;114465;-75
2023/03/12 02:08:27;;;;;;;15.30;7.10;;;;;;;-2.41;75.61;99732.87;131697;1253;114670;-77
2023/03/12 02:11:30;;;;;;;13.50;6.50;;;;;;;-2.40;75.63;99736.02;131655;1257;114706;-77
2023/03/12 02:14:33;;;;;;;13.30;6.30;;;;;;;-2.40;75.29;99737.92;131724;1257;114684;-76
2023/03/12 02:17:36;;;;;;;11.30;6.20;;;;;;;-2.39;75.28;99742.11;131671;1253;113233;-76
2023/03/12 02:20:47;;;;;;;9.80;6.10;;;;;;;-2.38;75.62;99747.88;131552;1257;115445;-76
2023/03/12 02:23:56;;;;;;;15.50;6.00;;;;;;;-2.37;75.47;99746.64;132688;1254;113113;-77
2023/03/12 02:26:58;;;;;;;11.90;6.20;;;;;;;-2.35;75.65;99745.23;131651;1253;128640;-76
2023/03/12 02:30:03;;;;;;;13.60;5.20;;;;;;;-2.31;75.59;99752.05;131642;1253;115256;-77
2023/03/12 02:33:08;;;;;;;9.60;5.60;;;;;;;-2.29;75.38;99753.77;131702;1254;113357;-77
2023/03/12 02:36:11;;;;;;;12.90;5.50;;;;;;;-2.26;75.08;99754.80;131680;1253;114831;-77
2023/03/12 02:39:13;;;;;;;10.30;5.40;;;;;;;-2.23;75.41;99757.41;131623;1253;115295;-76
2023/03/12 02:42:16;;;;;;;11.00;5.10;;;;;;;-2.20;75.30;99758.62;131677;1254;115123;-75
2023/03/12 02:45:19;;;;;;;9.10;4.60;;;;;;;-2.15;75.11;99759.64;131664;1259;115160;-75
2023/03/12 02:48:22;;;;;;;7.80;4.70;;;;;;;-2.10;74.77;99765.39;131685;1256;114770;-75
2023/03/12 02:51:24;;;;;;;9.40;4.50;;;;;;;-2.07;74.95;99759.40;131704;1253;113205;-76
2023/03/12 02:54:27;;;;;;;6.20;4.20;;;;;;;-2.04;75.23;99764.27;131697;1253;113468;-76
2023/03/12 02:57:30;;;;;;;9.90;5.20;;;;;;;-2.01;74.74;99762.52;131380;1253;113554;-77
2023/03/12 03:00:33;;;;;;;9.70;5.40;;;;;;;-1.99;74.90;99761.63;131674;1254;114728;-77
2023/03/12 03:03:36;;;;;;;7.90;4.40;;;;;;;-1.97;75.22;99760.56;131643;1253;114680;-76
2023/03/12 03:06:40;;;;;;;11.80;4.60;;;;;;;-1.95;74.99;99762.30;131528;1253;113647;-76
2023/03/12 03:09:44;;;;;;;10.50;4.70;;;;;;;-1.94;74.56;99764.92;131702;1253;113500;-76
2023/03/12 03:12:47;;;;;;;10.70;4.50;;;;;;;-1.94;74.82;99767.89;131635;1253;113541;-76
2023/03/12 03:15:50;;;;;;;10.80;4.10;;;;;;;-1.92;74.90;99771.20;131599;1259;114766;-76
2023/03/12 03:18:52;;;;;;;13.10;4.40;;;;;;;-1.91;74.69;99774.18;131474;1254;115408;-77
2023/03/12 03:21:55;;;;;;;20.10;4.60;;;;;;;-1.90;75.15;99774.88;131701;1254;114483;-75
2023/03/12 03:24:58;;;;;;;11.70;4.90;;;;;;;-1.90;74.54;99776.26;131518;1259;114748;-76
2023/03/12 03:28:01;;;;;;;8.20;4.00;;;;;;;-1.88;74.70;99781.86;131690;1254;114712;-76
2023/03/12 03:31:04;;;;;;;9.60;3.90;;;;;;;-1.89;74.68;99786.92;131530;1254;114652;-75
2023/03/12 03:34:07;;;;;;;7.90;3.80;;;;;;;-1.89;74.67;99789.73;131658;1253;127848;-76
2023/03/12 03:37:10;;;;;;;7.90;3.80;;;;;;;-1.90;74.50;99794.29;131541;1254;114747;-77
2023/03/12 03:40:13;;;;;;;9.60;4.10;;;;;;;-1.90;74.35;99796.56;131689;1254;114699;-77
2023/03/12 03:43:15;;;;;;;6.20;3.20;;;;;;;-1.91;74.54;99800.25;131682;1253;115381;-75
2023/03/12 03:46:18;;;;;;;7.20;3.50;;;;;;;-1.91;74.30;99799.04;131729;1254;114678;-76
2023/03/12 03:49:21;;;;;;;9.30;3.20;;;;;;;-1.90;74.50;99798.32;131656;1254;114552;-75
2023/03/12 03:52:25;;;;;;;10.40;3.00;;;;;;;-1.90;74.37;99799.89;131677;1258;128727;-75
2023/03/12 03:55:27;;;;;;;4.60;3.30;;;;;;;-1.89;74.33;99800.76;131629;1254;114719;-75
2023/03/12 03:58:30;;;;;;;7.90;3.10;;;;;;;-1.87;74.07;99803.20;131721;1253;114536;-76
2023/03/12 04:01:32;;;;;;;7.30;3.30;;;;;;;-1.84;74.10;99808.96;131573;1253;115247;-75
2023/03/12 04:04:35;;;;;;;7.50;3.20;;;;;;;-1.82;74.33;99815.06;131678;1257;113291;-75
2023/03/12 04:07:37;;;;;;;7.10;3.40;;;;;;;-1.78;74.49;99811.01;131645;1253;114687;-76
2023/03/12 04:10:40;;;;;;;13.30;3.40;;;;;;;-1.74;74.14;99813.08;131515;1254;114745;-76
2023/03/12 04:13:44;;;;;;;8.70;3.40;;;;;;;-1.69;74.21;99814.09;131628;1253;113194;-75
2023/03/12 04:16:46;;;;;;;8.10;3.30;;;;;;;-1.64;74.37;99814.73;131626;1253;114730;-75
2023/03/12 04:19:48;;;;;;;6.20;2.60;;;;;;;-1.58;73.74;99823.11;131701;1254;114672;-75
2023/03/12 04:22:51;;;;;;;7.70;3.20;;;;;;;-1.51;73.53;99818.34;131637;1253;113215;-75
2023/03/12 04:25:53;;;;;;;5.50;3.00;;;;;;;-1.45;73.82;99828.27;131669;1254;114710;-75
2023/03/12 04:28:56;;;;;;;9.80;3.10;;;;;;;-1.39;74.03;99826.82;131594;1254;114805;-77
2023/03/12 04:31:58;;;;;;;12.60;3.40;;;;;;;-1.31;74.08;99830.25;132360;1253;114846;-76
2023/03/12 04:35:01;;;;;;;5.90;3.00;;;;;;;-1.24;73.68;99832.83;131642;1253;114729;-77
2023/03/12 04:38:03;;;;;;;13.70;4.20;;;;;;;-1.17;73.88;99839.42;131705;1258;114670;-77
2023/03/12 04:41:09;;;;;;;7.10;3.20;;;;;;;-1.11;73.95;99841.65;131544;1259;113276;-75
2023/03/12 04:44:11;;;;;;;;;;;;;;;-1.05;73.46;99843.86;131430;1255;113658;-75
2023/03/12 04:47:14;;;;;;;7.40;3.00;;;;;;;-1.00;73.49;99845.58;131649;1254;115270;-75
2023/03/12 04:50:17;;;;;;;9.10;3.30;;;;;;;-0.95;73.40;99849.38;131624;1258;113158;-73
2023/03/12 04:53:21;;;;;;;7.40;3.50;;;;;;;-0.89;73.32;99849.67;131691;1254;113568;-75
2023/03/12 04:56:24;;;;;;;10.00;2.80;;;;;;;-0.86;72.98;99847.54;131732;1254;114745;-75
2023/03/12 04:59:27;;;;;;;6.90;3.20;;;;;;;-0.82;72.70;99855.03;131699;1259;114667;-76
2023/03/12 05:02:29;;;;;;;9.10;3.20;;;;;;;-0.79;72.57;99855.17;131710;1253;115367;-77
2023/03/12 05:05:35;;;;;;;6.40;3.10;;;;;;;-0.75;72.51;99862.85;131729;1254;115461;-77
2023/03/12 05:08:37;;;;;;;5.90;2.90;;;;;;;-0.71;72.69;99868.24;131664;1256;115193;-76
2023/03/12 05:11:40;;;;;;;8.50;3.20;;;;;;;-0.67;72.73;99869.80;131655;1258;114690;-74
2023/03/12 05:14:43;;;;;;;9.50;4.00;;;;;;;-0.63;72.64;99869.56;131667;1259;115316;-75
2023/03/12 05:17:46;;;;;;;9.60;3.80;;;;;;;-0.62;72.32;99867.80;131650;1253;113313;-75
2023/03/12 05:20:59;;;;;;;10.70;3.80;;;;;;;-0.62;72.22;99868.68;131669;1254;114700;-76
2023/03/12 05:24:02;;;;;;;12.90;3.30;;;;;;;-0.63;72.11;99870.79;131640;1259;115223;-76
2023/03/12 05:27:07;;;;;;;5.70;3.60;;;;;;;-0.65;71.89;99874.84;131488;1259;114828;-75
2023/03/12 05:30:10;;;;;;;6.80;3.60;;;;;;;-0.66;71.92;99878.90;131627;1254;114668;-74
2023/03/12 05:33:13;;;;;;;5.80;3.30;;;;;;;-0.68;71.75;99876.12;131699;1254;114670;-74
2023/03/12 05:36:16;;;;;;;9.30;3.40;;;;;;;-0.70;71.59;99880.87;131666;1253;114712;-76
2023/03/12 05:39:20;;;;;;;9.30;3.50;;;;;;;-0.70;71.71;99884.20;131674;1254;114865;-76
2023/03/12 05:42:24;;;;;;;5.70;3.20;;;;;;;-0.70;71.77;99884.37;131685;1259;114660;-76
2023/03/12 05:45:27;;;;;;;5.30;3.50;;;;;;;-0.69;71.73;99885.92;131697;1258;113214;-76
2023/03/12 05:48:30;;;;;;;6.60;3.00;;;;;;;-0.65;71.58;99888.17;131639;1256;114991;-77
2023/03/12 05:51:33;;;;;;;6.00;3.40;;;;;;;-0.61;71.65;99887.42;131736;1258;128694;-77
2023/03/12 05:54:36;;;;;;;9.20;3.30;;;;;;;-0.58;71.46;99886.35;131652;1257;114839;-78
2023/03/12 05:57:39;;;;;;;5.60;2.70;;;;;;;-0.53;71.52;99892.44;131669;1259;114698;-77
2023/03/12 06:00:44;;;;;;;7.20;2.60;;;;;;;-0.49;71.38;99896.61;131771;1256;114732;-75
2023/03/12 06:03:47;;;;;;;;;;;;;;;-0.42;71.40;99909.16;131590;1260;113450;-75
2023/03/12 06:06:50;;;;;;;7.30;4.60;;;;;;;-0.33;71.29;99907.83;131662;1253;114763;-75
2023/03/12 06:09:53;;;;;;;19.40;10.80;;;;;;;-0.22;71.39;99913.33;131687;1259;113945;-76
2023/03/12 06:12:57;;;;;;;19.40;10.80;;;;;;;-0.13;71.68;99916.36;131704;1255;114700;-78
2023/03/12 06:16:04;;;;;;;7.20;3.60;;;;;;;-0.07;71.13;99917.88;131771;1256;114041;-75
2023/03/12 06:19:12;;;;;;;6.10;2.50;;;;;;;-0.01;71.02;99925.90;131518;1254;114431;-77
2023/03/12 06:22:15;;;;;;;11.20;2.80;;;;;;;0.07;70.84;99931.05;132614;1254;127667;-77
2023/03/12 06:25:18;;;;;;;4.60;2.80;;;;;;;0.15;71.08;99935.17;132691;1254;113270;-75
2023/03/12 06:28:21;;;;;;;6.50;3.00;;;;;;;0.29;71.07;99933.58;131784;1254;114715;-75
2023/03/12 06:31:24;;;;;;;9.80;3.20;;;;;;;0.49;70.71;99935.23;131761;1258;113644;-75
2023/03/12 06:34:28;;;;;;;5.30;2.80;;;;;;;0.70;70.60;99935.11;131759;1258;114695;-75
2023/03/12 06:37:32;;;;;;;15.50;4.40;;;;;;;0.91;70.65;99931.63;131702;1255;114718;-75
2023/03/12 06:40:34;;;;;;;5.00;2.60;;;;;;;1.12;70.34;99934.80;131549;1256;114671;-73
2023/03/12 06:43:38;;;;;;;8.50;3.80;;;;;;;1.33;70.39;99937.26;131704;1259;114700;-75
2023/03/12 06:46:43;;;;;;;8.00;3.20;;;;;;;1.56;70.09;99944.95;131697;1256;114492;-75
2023/03/12 06:49:46;;;;;;;6.90;3.40;;;;;;;1.78;70.18;99949.47;131681;1256;113690;-74
2023/03/12 06:52:50;;;;;;;5.70;3.40;;;;;;;2.00;69.61;99946.40;131341;1259;127803;-73
2023/03/12 06:55:53;;;;;;;4.00;2.10;;;;;;;2.18;69.22;99953.44;131692;1254;114734;-77
2023/03/12 06:58:57;;;;;;;9.30;2.60;;;;;;;2.33;68.98;99959.46;131682;1259;114552;-75
2023/03/12 07:02:00;;;;;;;4.90;3.40;;;;;;;2.46;68.61;99960.94;131792;1259;115229;-73
2023/03/12 07:05:05;;;;;;;5.30;3.10;;;;;;;2.59;68.62;99959.95;131366;1256;113501;-75
2023/03/12 07:08:08;;;;;;;5.50;3.00;;;;;;;2.74;68.40;99965.61;131654;1254;128834;-76
2023/03/12 07:11:12;;;;;;;7.30;3.10;;;;;;;2.89;68.45;99969.66;131689;1258;114709;-76
2023/03/12 07:14:15;;;;;;;5.60;2.40;;;;;;;3.06;68.06;99970.35;131707;1256;113710;-75
2023/03/12 07:17:18;;;;;;;5.70;2.70;;;;;;;3.23;67.95;99968.16;131726;1258;114683;-76
2023/03/12 07:20:21;;;;;;;6.40;3.30;;;;;;;3.40;67.52;99976.75;131689;1253;114552;-77
2023/03/12 07:23:24;;;;;;;7.40;2.90;;;;;;;3.61;67.61;99975.14;131708;1259;115285;-76
2023/03/12 07:26:27;;;;;;;4.60;2.30;;;;;;;3.84;67.11;99978.09;131715;1260;114450;-71
2023/03/12 07:29:30;;;;;;;6.30;3.70;;;;;;;3.96;66.82;99977.04;131736;1258;114875;-74
2023/03/12 07:32:33;;;;;;;8.60;3.50;;;;;;;4.02;66.38;99984.48;131676;1258;114715;-76
2023/03/12 07:35:40;;;;;;;9.70;3.10;;;;;;;4.06;66.31;99986.12;131728;1260;114667;-76
2023/03/12 07:38:43;;;;;;;9.80;3.00;;;;;;;4.19;66.59;99988.25;131686;1260;128777;-76
2023/03/12 07:41:46;;;;;;;8.30;3.00;;;;;;;4.33;66.31;99998.30;131755;1260;113840;-78
2023/03/12 07:44:48;;;;;;;11.20;3.30;;;;;;;4.44;65.96;99997.81;131750;1257;114786;-77
2023/03/12 07:47:51;;;;;;;17.90;8.70;;;;;;;4.48;65.73;99998.73;131775;1260;113401;-76
2023/03/12 07:50:54;;;;;;;21.00;12.10;;;;;;;4.49;64.93;99999.92;131709;1258;114671;-76
2023/03/12 07:53:56;;;;;;;12.00;7.10;;;;;;;4.52;65.19;100002.85;131748;1254;114707;-79
2023/03/12 07:57:01;;;;;;;7.20;4.40;;;;;;;4.58;65.07;100001.46;131720;1260;129807;-78
2023/03/12 08:00:09;;;;;;;7.40;3.90;;;;;;;4.62;64.73;99997.80;131598;1260;114616;-78
2023/03/12 08:03:13;;;;;;;8.80;3.90;;;;;;;4.67;64.61;100000.48;131682;1257;113270;-76
2023/03/12 08:06:16;;;;;;;8.60;3.90;;;;;;;4.74;64.77;99998.48;131484;1263;114748;-76
2023/03/12 08:09:19;;;;;;;9.30;4.00;;;;;;;4.90;64.63;100000.48;131714;1254;114757;-80
2023/03/12 08:12:22;;;;;;;4.90;3.70;;;;;;;5.02;64.48;100003.31;131689;1254;115310;-76
2023/03/12 08:15:26;;;;;;;7.80;4.70;;;;;;;5.13;63.99;100002.95;131735;1254;114686;-78
2023/03/12 08:18:30;;;;;;;13.70;5.30;;;;;;;5.20;63.90;100003.27;131593;1261;114830;-75
2023/03/12 08:21:33;;;;;;;15.00;8.50;;;;;;;5.32;63.47;100010.48;131573;1260;114469;-77
2023/03/12 08:24:37;;;;;;;11.40;5.90;;;;;;;5.46;63.23;100004.74;131571;1255;113193;-73
2023/03/12 08:27:40;;;;;;;21.00;9.40;;;;;;;5.63;63.43;100006.27;131477;1259;114710;-73
2023/03/12 08:30:48;;;;;;;19.30;9.50;;;;;;;5.83;63.71;100007.55;131482;1259;115231;-74
2023/03/12 08:33:51;;;;;;;9.90;4.70;;;;;;;6.07;63.22;100007.82;131561;1257;113432;-76
2023/03/12 08:36:55;;;;;;;8.60;4.00;;;;;;;6.20;62.86;100008.58;131549;1258;114840;-79
2023/03/12 08:39:59;;;;;;;10.90;5.10;;;;;;;6.25;62.25;100013.71;131524;1258;114728;-77
2023/03/12 08:43:02;;;;;;;7.50;4.30;;;;;;;6.21;62.13;100012.09;131520;1260;128829;-78
2023/03/12 08:46:05;;;;;;;8.70;4.80;;;;;;;6.14;61.78;100013.25;131547;1257;114832;-77
2023/03/12 08:49:08;;;;;;;10.50;3.90;;;;;;;6.10;62.18;100011.07;131597;1260;113389;-79
2023/03/12 08:52:11;;;;;;;9.50;5.30;;;;;;;6.12;61.77;100018.47;131535;1257;114771;-80
2023/03/12 08:55:14;;;;;;;8.50;4.70;;;;;;;6.10;61.71;100014.46;131558;1257;114668;-79
2023/03/12 08:58:16;;;;;;;9.10;3.70;;;;;;;6.11;61.79;100017.61;131497;1256;114700;-78
2023/03/12 09:01:19;;;;;;;13.90;6.90;;;;;;;6.11;61.28;100016.54;131541;1256;114711;-77
2023/03/12 09:04:23;;;;;;;9.60;5.10;;;;;;;6.12;61.51;100014.56;131646;1257;114868;-77
2023/03/12 09:07:26;;;;;;;19.00;7.20;;;;;;;6.14;61.41;100015.39;131579;1258;114694;-77
2023/03/12 09:10:29;;;;;;;16.00;5.60;;;;;;;6.17;61.43;100019.16;131500;1255;114658;-78
2023/03/12 09:13:36;;;;;;;9.40;3.20;;;;;;;6.21;61.30;100016.71;131580;1258;114675;-78
2023/03/12 09:16:39;;;;;;;10.80;5.80;;;;;;;6.20;60.57;100019.02;131620;1257;114674;-78
2023/03/12 09:19:43;;;;;;;15.40;6.60;;;;;;;6.16;60.50;100019.89;131626;1257;113557;-77
2023/03/12 09:22:48;;;;;;;14.00;5.90;;;;;;;6.19;60.42;100015.89;131538;1257;114503;-78
2023/03/12 09:25:52;;;;;;;12.80;6.50;;;;;;;6.26;60.43;100019.55;131580;1257;115018;-76
2023/03/12 09:28:56;;;;;;;14.70;6.00;;;;;;;6.33;60.42;100017.35;131686;1254;127836;-78
2023/03/12 09:32:00;;;;;;;7.50;2.90;;;;;;;6.43;60.33;100020.19;131696;1254;113206;-78
2023/03/12 09:35:05;;;;;;;11.60;4.80;;;;;;;6.50;60.05;100015.48;131702;1257;113245;-75
2023/03/12 09:38:12;;;;;;;8.10;4.20;;;;;;;6.57;59.68;100019.12;131741;1254;113131;-79
2023/03/12 09:41:27;;;;;;;9.60;3.40;;;;;;;6.62;59.65;100020.16;131659;1254;114835;-74
2023/03/12 09:44:40;;;;;;;11.10;3.10;;;;;;;6.60;58.96;100015.29;131720;1254;128784;-80
2023/03/12 09:47:52;;;;;;;7.80;2.90;;;;;;;6.62;59.52;100015.76;131619;1254;115204;-78
2023/03/12 09:50:55;;;;;;;5.20;2.90;;;;;;;6.75;59.52;100012.23;131624;1257;114827;-63
2023/03/12 09:54:04;;;;;;;9.50;3.30;;;;;;;6.82;59.10;100012.13;128679;1254;114775;-64
2023/03/12 09:57:14;;;;;;;5.60;3.00;;;;;;;6.86;58.89;100007.92;128365;1274;113271;-64
2023/03/12 10:00:28;;;;;;;10.70;4.70;;;;;;;6.90;58.93;100010.41;128324;1255;127838;-63
2023/03/12 10:03:56;;;;;;;8.50;3.90;;;;;;;6.83;58.72;100010.68;128506;1264;115399;-63
2023/03/12 10:07:18;;;;;;;6.10;2.50;;;;;;;6.74;58.45;100012.80;128775;1258;113457;-63
2023/03/12 10:10:28;;;;;;;7.30;3.80;;;;;;;6.66;58.37;100014.52;128580;1257;113308;-64
2023/03/12 10:14:04;;;;;;;4.80;2.90;;;;;;;6.57;58.07;100012.38;128928;1254;114830;-63
2023/03/12 10:17:40;;;;;;;7.60;2.40;;;;;;;6.53;58.04;100009.15;130206;1257;128911;-64
2023/03/12 10:21:01;;;;;;;5.20;2.40;;;;;;;6.50;58.41;100009.95;128496;1260;114843;-61
2023/03/12 10:24:21;;;;;;;4.70;2.40;;;;;;;6.50;58.06;100008.92;128848;1254;114053;-63
2023/03/12 10:27:31;;;;;;;5.00;2.10;;;;;;;6.52;58.35;100006.16;128867;1254;114962;-62
2023/03/12 10:30:39;;;;;;;9.70;5.20;;;;;;;6.53;57.98;100007.23;128824;1260;115298;-59
2023/03/12 10:33:53;;;;;;;6.40;3.40;;;;;;;6.49;57.75;100008.04;128952;1254;127871;-60
2023/03/12 10:37:20;;;;;;;10.00;5.20;;;;;;;6.54;57.95;100005.75;128550;1258;114844;-64
2023/03/12 10:40:30;;;;;;;13.10;5.60;;;;;;;6.60;58.03;100008.02;128676;1254;114709;-64
2023/03/12 10:43:34;;;;;;;5.40;2.40;;;;;;;6.64;57.53;100009.09;131718;1254;115268;-66
2023/03/12 10:47:01;;;;;;;6.30;2.80;;;;;;;6.67;57.54;100013.23;129600;1258;115511;-63
2023/03/12 10:50:27;;;;;;;9.50;3.50;;;;;;;6.69;57.52;100022.23;128841;1253;128761;-63
2023/03/12 10:53:34;;;;;;;6.50;3.00;;;;;;;6.62;57.26;100019.81;128910;1257;114865;-63
2023/03/12 10:56:51;;;;;;;8.40;3.80;;;;;;;6.61;57.36;100012.04;129006;1253;115023;-61
2023/03/12 11:00:10;;;;;;;6.90;2.50;;;;;;;6.66;57.62;100011.68;128846;1260;114738;-61
2023/03/12 11:03:24;;;;;;;8.20;4.10;;;;;;;6.67;57.30;100009.69;128885;1259;114832;-63
2023/03/12 11:06:29;;;;;;;6.50;3.30;;;;;;;6.66;57.27;100008.30;128754;1254;127665;-64
2023/03/12 11:09:36;;;;;;;6.00;3.20;;;;;;;6.67;57.01;100008.79;129363;1254;115897;-62
2023/03/12 11:12:57;;;;;;;17.20;4.40;;;;;;;6.69;57.18;100013.36;128972;1268;114696;-61
2023/03/12 11:16:20;;;;;;;5.10;2.60;;;;;;;6.68;56.83;100013.39;128579;1253;114697;-62
2023/03/12 11:19:34;;;;;;;8.10;3.20;;;;;;;6.62;56.69;100014.69;128909;1258;114712;-62
2023/03/12 11:22:40;;;;;;;13.70;6.50;;;;;;;6.58;56.82;100007.20;128791;1254;127804;-62
2023/03/12 11:25:52;;;;;;;12.80;8.40;;;;;;;6.59;56.85;100002.02;128539;1258;114828;-62
2023/03/12 11:29:05;;;;;;;7.60;2.50;;;;;;;6.61;56.88;99998.24;128911;1254;114703;-63
2023/03/12 11:32:20;;;;;;;6.30;2.50;;;;;;;6.65;56.71;99992.90;128877;1257;114712;-62
2023/03/12 11:35:44;;;;;;;6.10;2.50;;;;;;;6.75;56.75;99984.71;128804;1255;114725;-62
2023/03/12 11:38:56;;;;;;;8.30;2.50;;;;;;;6.87;56.79;99982.48;128737;1254;128056;-63
2023/03/12 11:42:34;;;;;;;7.10;3.10;;;;;;;7.02;56.91;99973.90;128993;1257;114747;-64
2023/03/12 11:46:19;;;;;;;7.80;3.60;;;;;;;7.21;56.77;99971.36;128864;1254;114705;-63
2023/03/12 11:49:24;;;;;;;6.90;3.50;;;;;;;7.38;56.88;99970.65;128655;1258;114726;-64
2023/03/12 11:52:40;;;;;;;7.70;2.80;;;;;;;7.59;55.86;99971.92;128785;1257;114509;-61
2023/03/12 11:56:22;;;;;;;4.70;2.50;;;;;;;7.81;55.69;99972.77;128775;1257;127866;-62
2023/03/12 11:59:41;;;;;;;6.90;2.40;;;;;;;8.02;54.91;99972.54;128769;1258;114729;-63
2023/03/12 12:03:14;;;;;;;7.60;2.80;;;;;;;8.20;54.99;99967.87;128758;1257;114446;-62
2023/03/12 12:06:38;;;;;;;8.30;2.60;;;;;;;8.33;54.58;99968.52;128763;1257;114699;-63
2023/03/12 12:10:10;;;;;;;5.90;2.60;;;;;;;8.44;54.93;99967.48;128497;1260;114738;-63
2023/03/12 12:13:28;;;;;;;6.30;2.60;;;;;;;8.55;54.47;99965.77;128389;1254;127965;-62
2023/03/12 12:16:52;;;;;;;5.80;3.30;;;;;;;8.60;53.65;99958.41;128713;1255;113976;-62
2023/03/12 12:20:20;;;;;;;6.60;2.80;;;;;;;8.65;53.50;99954.60;128756;1257;114709;-62
2023/03/12 12:23:46;;;;;;;3.80;3.00;;;;;;;8.74;52.90;99950.46;128751;1257;114716;-63
2023/03/12 12:27:15;;;;;;;8.70;3.10;;;;;;;8.74;52.80;99951.52;129207;1255;114761;-63
2023/03/12 12:30:54;;;;;;;7.70;3.30;;;;;;;8.83;52.97;99949.83;128466;1259;127766;-62
2023/03/12 12:34:12;;;;;;;6.20;2.90;;;;;;;8.86;52.22;99948.82;128745;1253;113901;-63
2023/03/12 12:37:49;;;;;;;5.90;2.30;;;;;;;8.91;52.67;99947.86;128766;1254;115299;-62
2023/03/12 12:41:36;;;;;;;8.50;3.40;;;;;;;9.04;52.51;99955.62;128773;1257;114738;-62
2023/03/12 12:44:52;;;;;;;5.40;2.60;;;;;;;9.04;51.38;99948.86;128845;1254;114687;-63
2023/03/12 12:48:19;;;;;;;6.60;3.30;;;;;;;8.97;51.34;99950.41;128748;1257;128869;-63
2023/03/12 12:51:37;;;;;;;9.00;3.60;;;;;;;9.01;51.62;99949.71;128763;1254;115326;-64
2023/03/12 12:54:54;;;;;;;5.70;3.00;;;;;;;9.09;51.51;99943.44;131679;1253;114789;-64
2023/03/12 12:58:39;;;;;;;8.20;3.90;;;;;;;9.16;51.25;99941.70;131448;1253;115419;-63
2023/03/12 13:01:47;;;;;;;9.10;4.40;;;;;;;9.21;51.44;99945.30;128720;1257;114814;-64
2023/03/12 13:04:56;;;;;;;6.50;3.30;;;;;;;9.31;51.58;99945.55;128920;1257;127753;-64
2023/03/12 13:07:59;;;;;;;6.50;3.40;;;;;;;9.37;51.11;99937.25;131697;1256;114696;-63
2023/03/12 13:11:14;;;;;;;4.50;2.60;;;;;;;9.40;50.81;99937.61;128848;1257;114700;-63
2023/03/12 13:14:44;;;;;;;4.90;3.10;;;;;;;9.44;50.31;99938.33;128471;1258;114709;-63
2023/03/12 13:17:58;;;;;;;12.70;5.80;;;;;;;9.45;50.35;99932.59;131733;1253;114568;-66
2023/03/12 13:21:22;;;;;;;5.80;3.20;;;;;;;9.48;49.80;99928.84;128332;1253;128676;-65
2023/03/12 13:25:00;;;;;;;8.90;3.50;;;;;;;9.51;50.12;99916.39;130720;1256;2115361;-65
2023/03/12 13:28:31;;;;;;;9.20;3.60;;;;;;;9.60;50.09;99917.00;129992;1262;114554;-67
2023/03/12 13:31:35;;;;;;;4.80;2.40;;;;;;;9.65;49.65;99921.19;130976;1262;114943;-65
2023/03/12 13:34:44;;;;;;;4.70;2.60;;;;;;;9.71;50.05;99917.65;128039;1267;114768;-64
2023/03/12 13:38:00;;;;;;;5.80;2.30;;;;;;;9.77;49.78;99917.75;128279;1262;127812;-65
2023/03/12 13:41:08;;;;;;;5.00;2.90;;;;;;;9.77;49.19;99922.35;128040;1266;113843;-66
2023/03/12 13:44:43;;;;;;;6.90;2.30;;;;;;;9.76;48.88;99924.74;127907;1262;114456;-65
2023/03/12 13:47:49;;;;;;;5.00;3.30;;;;;;;9.73;48.66;99928.80;127406;1273;114521;-64
2023/03/12 13:51:16;;;;;;;6.00;2.70;;;;;;;9.74;48.73;99935.56;127652;1271;114091;-64
2023/03/12 13:54:27;;;;;;;5.80;2.60;;;;;;;9.77;48.73;99933.58;127588;1272;128801;-62
2023/03/12 13:57:43;;;;;;;6.80;3.30;;;;;;;9.77;48.50;99930.05;130367;1267;114418;-66
2023/03/12 14:00:55;;;;;;;6.70;2.90;;;;;;;9.72;48.46;99917.45;130406;1271;114159;-65
2023/03/12 14:04:15;;;;;;;5.20;3.20;;;;;;;9.67;48.30;99914.69;130357;1268;113212;-65
2023/03/12 14:07:24;;;;;;;6.00;3.40;;;;;;;9.64;48.36;99917.70;131032;1262;114170;-64
2023/03/12 14:10:38;;;;;;;6.10;2.80;;;;;;;9.62;48.44;99917.63;127913;1262;127929;-64
2023/03/12 14:13:57;;;;;;;8.40;3.40;;;;;;;9.59;48.56;99917.59;127985;1266;114717;-64
2023/03/12 14:17:05;;;;;;;5.50;2.80;;;;;;;9.55;48.10;99909.57;127910;1267;113274;-64
2023/03/12 14:20:18;;;;;;;4.80;3.00;;;;;;;9.50;48.48;99910.73;128023;1262;113437;-64
2023/03/12 14:23:21;;;;;;;9.20;3.20;;;;;;;9.50;48.62;99908.23;130867;1256;114748;-64
2023/03/12 14:26:32;;;;;;;5.10;2.90;;;;;;;9.52;48.86;99907.77;131335;1256;128109;-65